sensor_id;sensor_type;location;lat;lon;timestamp;temperature;humidity
72919;SHT30;68407;55.694;26.994;2023-09-19T00:01:31;18.6;84.2
72919;SHT30;68407;55.694;26.994;2023-09-19T00:06:39;18.5;84.2
72919;SHT30;68407;55.694;26.994;2023-09-19T00:10:59;18.4;84.3
72919;SHT30;68407;55.694;26.994;2023-09-19T00:16:17;18.4;84.2
72919;SHT30;68407;55.694;26.994;2023-09-19T00:21:37;18.3;84.2
72919;SHT30;68407;55.694;26.994;2023-09-19T00:26:15;18.3;83.9
72919;SHT30;68407;55.694;26.994;2023-09-19T00:31:07;18.2;84.2
72919;SHT30;68407;55.694;26.994;2023-09-19T00:35:59;18.2;84
72919;SHT30;68407;55.694;26.994;2023-09-19T00:41:39;18.1;84.2
72919;SHT30;68407;55.694;26.994;2023-09-19T00:46:39;18;84.5
72919;SHT30;68407;55.694;26.994;2023-09-19T00:51:31;18;84.6
72919;SHT30;68407;55.694;26.994;2023-09-19T00:56:23;18;84.5
72919;SHT30;68407;55.694;26.994;2023-09-19T01:00:53;18;84.7
72919;SHT30;68407;55.694;26.994;2023-09-19T01:06:29;18.1;84.1
72919;SHT30;68407;55.694;26.994;2023-09-19T01:11:37;18.2;83.9
72919;SHT30;68407;55.694;26.994;2023-09-19T01:16:18;18.2;83.7
72919;SHT30;68407;55.694;26.994;2023-09-19T01:21:01;18.2;83.4
72919;SHT30;68407;55.694;26.994;2023-09-19T01:26:04;18.3;83.3
72919;SHT30;68407;55.694;26.994;2023-09-19T01:31:31;18.2;83.2
72919;SHT30;68407;55.694;26.994;2023-09-19T01:36:37;18.3;82.5
72919;SHT30;68407;55.694;26.994;2023-09-19T01:41:13;18.3;82.3
72919;SHT30;68407;55.694;26.994;2023-09-19T01:46:25;18.2;82.5
72919;SHT30;68407;55.694;26.994;2023-09-19T01:50:59;18.1;82.5
72919;SHT30;68407;55.694;26.994;2023-09-19T01:56:19;18.1;82.4
72919;SHT30;68407;55.694;26.994;2023-09-19T02:01:39;18;82.3
72919;SHT30;68407;55.694;26.994;2023-09-19T02:05:53;17.9;82.4
72919;SHT30;68407;55.694;26.994;2023-09-19T02:10:59;17.9;82.6
72919;SHT30;68407;55.694;26.994;2023-09-19T02:16:09;17.8;82.4
72919;SHT30;68407;55.694;26.994;2023-09-19T02:21:37;17.8;82.3
72919;SHT30;68407;55.694;26.994;2023-09-19T02:26:37;17.8;82.2
72919;SHT30;68407;55.694;26.994;2023-09-19T02:31:29;17.7;82.3
72919;SHT30;68407;55.694;26.994;2023-09-19T02:36:01;17.6;82.5
72919;SHT30;68407;55.694;26.994;2023-09-19T02:41:03;17.6;82.6
72919;SHT30;68407;55.694;26.994;2023-09-19T02:45:53;17.5;82.5
72919;SHT30;68407;55.694;26.994;2023-09-19T02:51:37;17.4;82.9
72919;SHT30;68407;55.694;26.994;2023-09-19T02:55:57;17.5;82.6
72919;SHT30;68407;55.694;26.994;2023-09-19T03:00:59;17.5;82.3
72919;SHT30;68407;55.694;26.994;2023-09-19T03:06:03;17.3;82.6
72919;SHT30;68407;55.694;26.994;2023-09-19T03:11:09;17.2;82.5
72919;SHT30;68407;55.694;26.994;2023-09-19T03:16:37;17.2;82.4
72919;SHT30;68407;55.694;26.994;2023-09-19T03:21:37;17.1;82
72919;SHT30;68407;55.694;26.994;2023-09-19T03:26:39;17.1;82.6
72919;SHT30;68407;55.694;26.994;2023-09-19T03:31:31;17.1;82.1
72919;SHT30;68407;55.694;26.994;2023-09-19T03:36:15;17.1;82.4
72919;SHT30;68407;55.694;26.994;2023-09-19T03:41:23;17;82.4
72919;SHT30;68407;55.694;26.994;2023-09-19T03:45:53;17;82.3
72919;SHT30;68407;55.694;26.994;2023-09-19T03:51:35;17;82.7
72919;SHT30;68407;55.694;26.994;2023-09-19T03:56:09;16.9;82.6
72919;SHT30;68407;55.694;26.994;2023-09-19T04:01:03;16.9;82.7
72919;SHT30;68407;55.694;26.994;2023-09-19T04:06:35;16.9;82.7
72919;SHT30;68407;55.694;26.994;2023-09-19T04:11:37;16.9;82.7
72919;SHT30;68407;55.694;26.994;2023-09-19T04:16:21;16.9;82.9
72919;SHT30;68407;55.694;26.994;2023-09-19T04:21:31;16.9;82.4
72919;SHT30;68407;55.694;26.994;2023-09-19T04:26:11;16.9;82.4
72919;SHT30;68407;55.694;26.994;2023-09-19T04:31:23;16.9;82.2
72919;SHT30;68407;55.694;26.994;2023-09-19T04:35:57;16.9;82.1
72919;SHT30;68407;55.694;26.994;2023-09-19T04:40:57;17;81.9
72919;SHT30;68407;55.694;26.994;2023-09-19T04:45:53;17;81.9
72919;SHT30;68407;55.694;26.994;2023-09-19T04:50:57;17.1;81.6
72919;SHT30;68407;55.694;26.994;2023-09-19T04:56:15;17.3;81.2
72919;SHT30;68407;55.694;26.994;2023-09-19T05:01:35;17.6;80.3
72919;SHT30;68407;55.694;26.994;2023-09-19T05:06:25;17.9;79.1
72919;SHT30;68407;55.694;26.994;2023-09-19T05:11:37;18;78.5
72919;SHT30;68407;55.694;26.994;2023-09-19T05:15:53;18.1;77.9
72919;SHT30;68407;55.694;26.994;2023-09-19T05:21:23;18.1;77.3
72919;SHT30;68407;55.694;26.994;2023-09-19T05:25:53;18.2;77
72919;SHT30;68407;55.694;26.994;2023-09-19T05:31:15;18.2;76.9
72919;SHT30;68407;55.694;26.994;2023-09-19T05:35:51;18.1;76.9
72919;SHT30;68407;55.694;26.994;2023-09-19T05:41:05;18.1;76.8
72919;SHT30;68407;55.694;26.994;2023-09-19T05:46:29;18.2;76.8
72919;SHT30;68407;55.694;26.994;2023-09-19T05:51:33;18.4;76.4
72919;SHT30;68407;55.694;26.994;2023-09-19T05:56:21;18.5;75.9
72919;SHT30;68407;55.694;26.994;2023-09-19T06:01:33;18.5;75.7
72919;SHT30;68407;55.694;26.994;2023-09-19T06:06:15;18.7;75.5
72919;SHT30;68407;55.694;26.994;2023-09-19T06:11:25;18.7;74.8
72919;SHT30;68407;55.694;26.994;2023-09-19T06:15:54;18.9;74.4
72919;SHT30;68407;55.694;26.994;2023-09-19T06:20:53;19;74.4
72919;SHT30;68407;55.694;26.994;2023-09-19T06:25:53;19.2;73.7
72919;SHT30;68407;55.694;26.994;2023-09-19T06:31:02;19.3;73.2
72919;SHT30;68407;55.694;26.994;2023-09-19T06:36:35;19.5;72.8
72919;SHT30;68407;55.694;26.994;2023-09-19T06:41:39;19.5;72.5
72919;SHT30;68407;55.694;26.994;2023-09-19T06:46:25;19.6;72.2
72919;SHT30;68407;55.694;26.994;2023-09-19T06:51:37;19.7;71.5
72919;SHT30;68407;55.694;26.994;2023-09-19T06:56:17;19.8;71.5
72919;SHT30;68407;55.694;26.994;2023-09-19T07:01:23;20.1;71.3
72919;SHT30;68407;55.694;26.994;2023-09-19T07:06:12;20.3;70.5
72919;SHT30;68407;55.694;26.994;2023-09-19T07:10:53;20.4;70.5
72919;SHT30;68407;55.694;26.994;2023-09-19T07:16:03;20.6;70.3
72919;SHT30;68407;55.694;26.994;2023-09-19T07:21:09;20.7;69.7
72919;SHT30;68407;55.694;26.994;2023-09-19T07:26:19;20.9;69.6
72919;SHT30;68407;55.694;26.994;2023-09-19T07:31:17;20.9;69.1
72919;SHT30;68407;55.694;26.994;2023-09-19T07:36:37;21;69
72919;SHT30;68407;55.694;26.994;2023-09-19T07:41:37;21.1;68.8
72919;SHT30;68407;55.694;26.994;2023-09-19T07:46:39;21.2;68.4
72919;SHT30;68407;55.694;26.994;2023-09-19T07:51:25;21.4;68.5
72919;SHT30;68407;55.694;26.994;2023-09-19T07:56:02;21.6;68.7
72919;SHT30;68407;55.694;26.994;2023-09-19T08:00:53;21.8;68.6
72919;SHT30;68407;55.694;26.994;2023-09-19T08:06:17;22;68.6
72919;SHT30;68407;55.694;26.994;2023-09-19T08:10:53;22.1;68.4
72919;SHT30;68407;55.694;26.994;2023-09-19T08:16:19;22.4;68.1
72919;SHT30;68407;55.694;26.994;2023-09-19T08:20:55;22.6;67.7
72919;SHT30;68407;55.694;26.994;2023-09-19T08:26:39;22.8;66.8
72919;SHT30;68407;55.694;26.994;2023-09-19T08:31:39;22.9;66.9
72919;SHT30;68407;55.694;26.994;2023-09-19T08:36:17;23.2;66.4
72919;SHT30;68407;55.694;26.994;2023-09-19T08:41:39;23.3;66.1
72919;SHT30;68407;55.694;26.994;2023-09-19T08:46:29;23.5;65.7
72919;SHT30;68407;55.694;26.994;2023-09-19T08:51:26;23.7;65.6
72919;SHT30;68407;55.694;26.994;2023-09-19T08:56:39;24;65.4
72919;SHT30;68407;55.694;26.994;2023-09-19T09:01:29;24.2;65.2
72919;SHT30;68407;55.694;26.994;2023-09-19T09:06:01;24.3;65
72919;SHT30;68407;55.694;26.994;2023-09-19T09:11:19;24.3;64.7
72919;SHT30;68407;55.694;26.994;2023-09-19T09:16:07;24.4;64.5
72919;SHT30;68407;55.694;26.994;2023-09-19T09:21:39;24.2;64.5
72919;SHT30;68407;55.694;26.994;2023-09-19T09:26:17;24.2;65
72919;SHT30;68407;55.694;26.994;2023-09-19T09:31:33;24.3;64.4
72919;SHT30;68407;55.694;26.994;2023-09-19T09:35:53;24.3;64.9
72919;SHT30;68407;55.694;26.994;2023-09-19T09:40:55;24.5;64.9
72919;SHT30;68407;55.694;26.994;2023-09-19T09:46:20;24.7;64.4
72919;SHT30;68407;55.694;26.994;2023-09-19T09:50:53;25;63.8
72919;SHT30;68407;55.694;26.994;2023-09-19T09:56:07;25.4;63.6
72919;SHT30;68407;55.694;26.994;2023-09-19T10:01:46;25.6;63
72919;SHT30;68407;55.694;26.994;2023-09-19T10:06:40;25.8;63.2
72919;SHT30;68407;55.694;26.994;2023-09-19T10:11:40;25.8;62.7
72919;SHT30;68407;55.694;26.994;2023-09-19T10:16:25;25.9;62.8
72919;SHT30;68407;55.694;26.994;2023-09-19T10:21:39;26.1;62.7
72919;SHT30;68407;55.694;26.994;2023-09-19T10:25:59;26.2;62.5
72919;SHT30;68407;55.694;26.994;2023-09-19T10:30:53;26.2;62.8
72919;SHT30;68407;55.694;26.994;2023-09-19T10:36:19;26.1;63.3
72919;SHT30;68407;55.694;26.994;2023-09-19T10:41:11;26.3;62.9
72919;SHT30;68407;55.694;26.994;2023-09-19T10:46:19;26.4;63
72919;SHT30;68407;55.694;26.994;2023-09-19T10:51:19;26.5;62.2
72919;SHT30;68407;55.694;26.994;2023-09-19T10:56:42;26.4;62
72919;SHT30;68407;55.694;26.994;2023-09-19T11:01:43;26.5;63.1
72919;SHT30;68407;55.694;26.994;2023-09-19T11:06:17;26.4;62.6
72919;SHT30;68407;55.694;26.994;2023-09-19T11:11:40;26.4;62.2
72919;SHT30;68407;55.694;26.994;2023-09-19T11:16:11;26.6;62.1
72919;SHT30;68407;55.694;26.994;2023-09-19T11:20:58;26.5;62
72919;SHT30;68407;55.694;26.994;2023-09-19T11:26:32;26.4;61.9
72919;SHT30;68407;55.694;26.994;2023-09-19T11:30:53;26.6;61.9
72919;SHT30;68407;55.694;26.994;2023-09-19T11:36:06;26.8;61.5
72919;SHT30;68407;55.694;26.994;2023-09-19T11:41:49;26.5;61.4
72919;SHT30;68407;55.694;26.994;2023-09-19T11:46:08;26.4;62.1
72919;SHT30;68407;55.694;26.994;2023-09-19T11:51:39;26.5;62.3
72919;SHT30;68407;55.694;26.994;2023-09-19T11:56:01;26.6;61.7
72919;SHT30;68407;55.694;26.994;2023-09-19T12:00:53;26.3;62
72919;SHT30;68407;55.694;26.994;2023-09-19T12:05:59;26.3;62
72919;SHT30;68407;55.694;26.994;2023-09-19T12:11:17;26.2;62
72919;SHT30;68407;55.694;26.994;2023-09-19T12:16:37;26;62.9
72919;SHT30;68407;55.694;26.994;2023-09-19T12:20:53;26.1;63.1
72919;SHT30;68407;55.694;26.994;2023-09-19T12:25:54;26.2;62.8
72919;SHT30;68407;55.694;26.994;2023-09-19T12:31:17;26.1;62.3
72919;SHT30;68407;55.694;26.994;2023-09-19T12:35:59;26;62.5
72919;SHT30;68407;55.694;26.994;2023-09-19T12:41:39;26;62.9
72919;SHT30;68407;55.694;26.994;2023-09-19T12:46:07;26.1;62.9
72919;SHT30;68407;55.694;26.994;2023-09-19T12:51:01;26.2;61.5
72919;SHT30;68407;55.694;26.994;2023-09-19T12:56:19;26.1;60.1
72919;SHT30;68407;55.694;26.994;2023-09-19T13:01:13;25.9;59.9
72919;SHT30;68407;55.694;26.994;2023-09-19T13:06:37;25.6;59.7
72919;SHT30;68407;55.694;26.994;2023-09-19T13:11:00;25.7;59.5
72919;SHT30;68407;55.694;26.994;2023-09-19T13:16:00;26;58.3
72919;SHT30;68407;55.694;26.994;2023-09-19T13:21:28;26;57.6
72919;SHT30;68407;55.694;26.994;2023-09-19T13:25:59;26.1;57.6
72919;SHT30;68407;55.694;26.994;2023-09-19T13:31:39;25.9;56.8
72919;SHT30;68407;55.694;26.994;2023-09-19T13:36:39;25.9;56.9
72919;SHT30;68407;55.694;26.994;2023-09-19T13:40:53;26.2;57
72919;SHT30;68407;55.694;26.994;2023-09-19T13:45:53;26.2;56.2
72919;SHT30;68407;55.694;26.994;2023-09-19T13:51:07;26;56.2
72919;SHT30;68407;55.694;26.994;2023-09-19T13:56:39;25.7;56.8
72919;SHT30;68407;55.694;26.994;2023-09-19T14:00:53;25.4;57.3
72919;SHT30;68407;55.694;26.994;2023-09-19T14:06:05;25.1;57.7
72919;SHT30;68407;55.694;26.994;2023-09-19T14:11:19;25.3;57.8
72919;SHT30;68407;55.694;26.994;2023-09-19T14:15:53;25.4;58.5
72919;SHT30;68407;55.694;26.994;2023-09-19T14:21:39;25.4;58.3
72919;SHT30;68407;55.694;26.994;2023-09-19T14:26:31;25.1;59
72919;SHT30;68407;55.694;26.994;2023-09-19T14:30:51;24.6;59.7
72919;SHT30;68407;55.694;26.994;2023-09-19T14:36:08;24.2;60.5
72919;SHT30;68407;55.694;26.994;2023-09-19T14:40:59;24;61.3
72919;SHT30;68407;55.694;26.994;2023-09-19T14:46:37;23.8;62
72919;SHT30;68407;55.694;26.994;2023-09-19T14:51:03;23.7;62.4
72919;SHT30;68407;55.694;26.994;2023-09-19T14:56:07;23.7;62.5
72919;SHT30;68407;55.694;26.994;2023-09-19T15:01:19;23.8;62.7
72919;SHT30;68407;55.694;26.994;2023-09-19T15:06:17;23.8;62.7
72919;SHT30;68407;55.694;26.994;2023-09-19T15:11:37;23.9;62.6
72919;SHT30;68407;55.694;26.994;2023-09-19T15:16:19;23.9;62.6
72919;SHT30;68407;55.694;26.994;2023-09-19T15:21:00;23.8;63
72919;SHT30;68407;55.694;26.994;2023-09-19T15:26:06;23.8;63
72919;SHT30;68407;55.694;26.994;2023-09-19T15:31:02;23.6;63.5
72919;SHT30;68407;55.694;26.994;2023-09-19T15:36:37;23.5;64.2
72919;SHT30;68407;55.694;26.994;2023-09-19T15:40:53;23.3;64.5
72919;SHT30;68407;55.694;26.994;2023-09-19T15:46:03;23.2;64.8
72919;SHT30;68407;55.694;26.994;2023-09-19T15:51:15;23.1;65.2
72919;SHT30;68407;55.694;26.994;2023-09-19T15:56:25;23;65.4
72919;SHT30;68407;55.694;26.994;2023-09-19T16:01:39;23;65.8
72919;SHT30;68407;55.694;26.994;2023-09-19T16:06:20;22.8;66
72919;SHT30;68407;55.694;26.994;2023-09-19T16:11:19;22.7;66.4
72919;SHT30;68407;55.694;26.994;2023-09-19T16:15:59;22.5;67
72919;SHT30;68407;55.694;26.994;2023-09-19T16:21:13;22.3;67.5
72919;SHT30;68407;55.694;26.994;2023-09-19T16:26:39;22.2;67.9
72919;SHT30;68407;55.694;26.994;2023-09-19T16:31:03;22.2;68.1
72919;SHT30;68407;55.694;26.994;2023-09-19T16:35:53;22.2;68.3
72919;SHT30;68407;55.694;26.994;2023-09-19T16:41:19;22.1;68.4
72919;SHT30;68407;55.694;26.994;2023-09-19T16:46:29;22.1;68.6
72919;SHT30;68407;55.694;26.994;2023-09-19T16:51:39;22.1;68.5
72919;SHT30;68407;55.694;26.994;2023-09-19T16:56:31;22;68.7
72919;SHT30;68407;55.694;26.994;2023-09-19T17:00:59;22;68.9
72919;SHT30;68407;55.694;26.994;2023-09-19T17:06:05;21.9;69.3
72919;SHT30;68407;55.694;26.994;2023-09-19T17:11:03;21.9;69.3
72919;SHT30;68407;55.694;26.994;2023-09-19T17:16:39;21.8;69.6
72919;SHT30;68407;55.694;26.994;2023-09-19T17:21:11;21.8;69.7
72919;SHT30;68407;55.694;26.994;2023-09-19T17:26:01;21.8;69.7
72919;SHT30;68407;55.694;26.994;2023-09-19T17:31:21;21.8;70.1
72919;SHT30;68407;55.694;26.994;2023-09-19T17:36:20;21.7;71.4
72919;SHT30;68407;55.694;26.994;2023-09-19T17:41:39;21.4;73.5
72919;SHT30;68407;55.694;26.994;2023-09-19T17:46:31;21.2;74.7
72919;SHT30;68407;55.694;26.994;2023-09-19T17:51:26;21;75.6
72919;SHT30;68407;55.694;26.994;2023-09-19T17:55:53;20.8;77.1
72919;SHT30;68407;55.694;26.994;2023-09-19T18:01:31;20.4;79
72919;SHT30;68407;55.694;26.994;2023-09-19T18:06:19;20.1;81.1
72919;SHT30;68407;55.694;26.994;2023-09-19T18:11:29;19.8;82.9
72919;SHT30;68407;55.694;26.994;2023-09-19T18:16:27;19.7;84
72919;SHT30;68407;55.694;26.994;2023-09-19T18:21:21;19.7;84.2
72919;SHT30;68407;55.694;26.994;2023-09-19T18:26:31;19.7;84.6
72919;SHT30;68407;55.694;26.994;2023-09-19T18:31:39;19.6;85.3
72919;SHT30;68407;55.694;26.994;2023-09-19T18:36:25;19.6;85.6
72919;SHT30;68407;55.694;26.994;2023-09-19T18:41:17;19.6;86.2
72919;SHT30;68407;55.694;26.994;2023-09-19T18:45:55;19.6;86.5
72919;SHT30;68407;55.694;26.994;2023-09-19T18:51:12;19.7;86.2
72919;SHT30;68407;55.694;26.994;2023-09-19T18:56:41;19.8;86.1
72919;SHT30;68407;55.694;26.994;2023-09-19T19:01:10;19.8;85.7
72919;SHT30;68407;55.694;26.994;2023-09-19T19:06:08;19.8;86.1
72919;SHT30;68407;55.694;26.994;2023-09-19T19:11:29;19.7;86.6
72919;SHT30;68407;55.694;26.994;2023-09-19T19:16:31;19.8;85.9
72919;SHT30;68407;55.694;26.994;2023-09-19T19:21:31;19.8;86.3
72919;SHT30;68407;55.694;26.994;2023-09-19T19:26:02;19.9;85.7
72919;SHT30;68407;55.694;26.994;2023-09-19T19:30:59;19.9;85.6
72919;SHT30;68407;55.694;26.994;2023-09-19T19:36:03;19.8;86.1
72919;SHT30;68407;55.694;26.994;2023-09-19T19:41:39;19.7;86.4
72919;SHT30;68407;55.694;26.994;2023-09-19T19:46:31;19.7;86.2
72919;SHT30;68407;55.694;26.994;2023-09-19T19:51:27;19.8;86.2
72919;SHT30;68407;55.694;26.994;2023-09-19T19:56:15;19.7;86.6
72919;SHT30;68407;55.694;26.994;2023-09-19T20:01:09;19.7;86.7
72919;SHT30;68407;55.694;26.994;2023-09-19T20:06:41;19.6;86.8
72919;SHT30;68407;55.694;26.994;2023-09-19T20:11:17;19.6;86.7
72919;SHT30;68407;55.694;26.994;2023-09-19T20:15:53;19.7;85.8
72919;SHT30;68407;55.694;26.994;2023-09-19T20:21:03;19.8;86.3
72919;SHT30;68407;55.694;26.994;2023-09-19T20:26:00;19.8;86.3
72919;SHT30;68407;55.694;26.994;2023-09-19T20:31:39;19.8;86.2
72919;SHT30;68407;55.694;26.994;2023-09-19T20:36:29;19.7;86
72919;SHT30;68407;55.694;26.994;2023-09-19T20:41:25;19.6;86.8
72919;SHT30;68407;55.694;26.994;2023-09-19T20:45:51;19.6;86.8
72919;SHT30;68407;55.694;26.994;2023-09-19T20:51:27;19.6;86.8
72919;SHT30;68407;55.694;26.994;2023-09-19T20:56:39;19.6;86.5
72919;SHT30;68407;55.694;26.994;2023-09-19T21:00:53;19.6;86.8
72919;SHT30;68407;55.694;26.994;2023-09-19T21:05:59;19.7;86.5
72919;SHT30;68407;55.694;26.994;2023-09-19T21:10:53;19.8;86.2
72919;SHT30;68407;55.694;26.994;2023-09-19T21:16:08;19.7;86
72919;SHT30;68407;55.694;26.994;2023-09-19T21:21:39;19.7;86.2
72919;SHT30;68407;55.694;26.994;2023-09-19T21:26:31;19.6;86.9
72919;SHT30;68407;55.694;26.994;2023-09-19T21:31:27;19.6;86.9
72919;SHT30;68407;55.694;26.994;2023-09-19T21:36:08;19.5;86.5
72919;SHT30;68407;55.694;26.994;2023-09-19T21:41:27;19.6;86.4
72919;SHT30;68407;55.694;26.994;2023-09-19T21:46:41;19.5;86.8
72919;SHT30;68407;55.694;26.994;2023-09-19T21:51:23;19.5;87
72919;SHT30;68407;55.694;26.994;2023-09-19T21:56:41;19.4;87.3
72919;SHT30;68407;55.694;26.994;2023-09-19T22:01:35;19.3;87.5
72919;SHT30;68407;55.694;26.994;2023-09-19T22:06:08;19.3;87.5
72919;SHT30;68407;55.694;26.994;2023-09-19T22:11:41;19.3;87.3
72919;SHT30;68407;55.694;26.994;2023-09-19T22:16:19;19.3;87.3
72919;SHT30;68407;55.694;26.994;2023-09-19T22:21:27;19.3;87.4
72919;SHT30;68407;55.694;26.994;2023-09-19T22:26:07;19.3;87.5
72919;SHT30;68407;55.694;26.994;2023-09-19T22:31:13;19.3;87.4
72919;SHT30;68407;55.694;26.994;2023-09-19T22:36:41;19.2;87.8
72919;SHT30;68407;55.694;26.994;2023-09-19T22:41:11;19;87.9
72919;SHT30;68407;55.694;26.994;2023-09-19T22:45:53;19;88.2
72919;SHT30;68407;55.694;26.994;2023-09-19T22:50:53;18.8;88.2
72919;SHT30;68407;55.694;26.994;2023-09-19T22:56:07;18.8;88.3
72919;SHT30;68407;55.694;26.994;2023-09-19T23:01:21;18.7;88.7
72919;SHT30;68407;55.694;26.994;2023-09-19T23:06:42;18.6;88.7
72919;SHT30;68407;55.694;26.994;2023-09-19T23:11:13;18.5;88.8
72919;SHT30;68407;55.694;26.994;2023-09-19T23:16:07;18.5;88.8
72919;SHT30;68407;55.694;26.994;2023-09-19T23:21:31;18.5;88.2
72919;SHT30;68407;55.694;26.994;2023-09-19T23:26:41;18.5;88.1
72919;SHT30;68407;55.694;26.994;2023-09-19T23:31:31;18.4;88.5
72919;SHT30;68407;55.694;26.994;2023-09-19T23:35:53;18.4;88.3
72919;SHT30;68407;55.694;26.994;2023-09-19T23:40:53;18.4;88.5
72919;SHT30;68407;55.694;26.994;2023-09-19T23:46:29;18.4;88.5
72919;SHT30;68407;55.694;26.994;2023-09-19T23:51:39;18.3;88.2
72919;SHT30;68407;55.694;26.994;2023-09-19T23:56:29;18.4;87.5
